sensor_id;sensor_type;location;lat;lon;timestamp;temperature;humidity
7360;DHT22;3720;48.274;7.796;2022-12-18T00:00:39;-5.10;99.90
7360;DHT22;3720;48.274;7.796;2022-12-18T00:03:12;-5.10;99.90
7360;DHT22;3720;48.274;7.796;2022-12-18T00:05:47;-5.10;99.90
7360;DHT22;3720;48.274;7.796;2022-12-18T00:08:21;-5.10;99.90
7360;DHT22;3720;48.274;7.796;2022-12-18T00:10:53;-5.00;99.90
7360;DHT22;3720;48.274;7.796;2022-12-18T00:13:25;-5.00;99.90
7360;DHT22;3720;48.274;7.796;2022-12-18T00:16:01;-4.90;99.90
7360;DHT22;3720;48.274;7.796;2022-12-18T00:18:34;-4.90;99.90
7360;DHT22;3720;48.274;7.796;2022-12-18T00:21:07;-4.80;99.90
7360;DHT22;3720;48.274;7.796;2022-12-18T00:23:43;-4.90;99.90
7360;DHT22;3720;48.274;7.796;2022-12-18T00:26:18;-5.00;99.90
7360;DHT22;3720;48.274;7.796;2022-12-18T00:28:51;-5.00;99.90
7360;DHT22;3720;48.274;7.796;2022-12-18T00:31:24;-4.90;99.90
7360;DHT22;3720;48.274;7.796;2022-12-18T00:33:57;-4.90;99.90
7360;DHT22;3720;48.274;7.796;2022-12-18T00:36:30;-5.00;99.90
7360;DHT22;3720;48.274;7.796;2022-12-18T00:39:05;-5.10;99.90
7360;DHT22;3720;48.274;7.796;2022-12-18T00:41:37;-5.10;99.90
7360;DHT22;3720;48.274;7.796;2022-12-18T00:44:26;-5.20;99.90
7360;DHT22;3720;48.274;7.796;2022-12-18T00:46:58;-5.30;99.90
7360;DHT22;3720;48.274;7.796;2022-12-18T00:49:30;-5.30;99.90
7360;DHT22;3720;48.274;7.796;2022-12-18T00:52:01;-5.30;99.90
7360;DHT22;3720;48.274;7.796;2022-12-18T00:54:35;-5.30;99.90
7360;DHT22;3720;48.274;7.796;2022-12-18T00:57:06;-5.40;99.90
7360;DHT22;3720;48.274;7.796;2022-12-18T00:59:38;-5.30;99.90
7360;DHT22;3720;48.274;7.796;2022-12-18T01:02:10;-5.40;99.90
7360;DHT22;3720;48.274;7.796;2022-12-18T01:04:45;-5.30;99.90
7360;DHT22;3720;48.274;7.796;2022-12-18T01:07:17;-5.40;99.90
7360;DHT22;3720;48.274;7.796;2022-12-18T01:09:50;-5.40;99.90
7360;DHT22;3720;48.274;7.796;2022-12-18T01:12:22;-5.40;99.90
7360;DHT22;3720;48.274;7.796;2022-12-18T01:14:54;-5.30;99.90
7360;DHT22;3720;48.274;7.796;2022-12-18T01:17:26;-5.30;99.90
7360;DHT22;3720;48.274;7.796;2022-12-18T01:19:58;-5.20;99.90
7360;DHT22;3720;48.274;7.796;2022-12-18T01:22:30;-5.20;99.90
7360;DHT22;3720;48.274;7.796;2022-12-18T01:25:06;-5.20;99.90
7360;DHT22;3720;48.274;7.796;2022-12-18T01:27:38;-5.20;99.90
7360;DHT22;3720;48.274;7.796;2022-12-18T01:30:11;-5.20;99.90
7360;DHT22;3720;48.274;7.796;2022-12-18T01:32:43;-5.20;99.90
7360;DHT22;3720;48.274;7.796;2022-12-18T01:35:15;-5.20;99.90
7360;DHT22;3720;48.274;7.796;2022-12-18T01:37:47;-5.30;99.90
7360;DHT22;3720;48.274;7.796;2022-12-18T01:40:20;-5.30;99.90
7360;DHT22;3720;48.274;7.796;2022-12-18T01:42:53;-5.40;99.90
7360;DHT22;3720;48.274;7.796;2022-12-18T01:45:27;-5.50;99.90
7360;DHT22;3720;48.274;7.796;2022-12-18T01:48:01;-5.50;99.90
7360;DHT22;3720;48.274;7.796;2022-12-18T01:50:36;-5.60;99.90
7360;DHT22;3720;48.274;7.796;2022-12-18T01:53:14;-5.60;99.90
7360;DHT22;3720;48.274;7.796;2022-12-18T01:55:51;-5.50;99.90
7360;DHT22;3720;48.274;7.796;2022-12-18T01:58:29;-5.50;99.90
7360;DHT22;3720;48.274;7.796;2022-12-18T02:01:04;-5.50;99.90
7360;DHT22;3720;48.274;7.796;2022-12-18T02:03:36;-5.50;99.90
7360;DHT22;3720;48.274;7.796;2022-12-18T02:06:12;-5.40;99.90
7360;DHT22;3720;48.274;7.796;2022-12-18T02:08:51;-5.40;99.90
7360;DHT22;3720;48.274;7.796;2022-12-18T02:11:39;-5.50;99.90
7360;DHT22;3720;48.274;7.796;2022-12-18T02:14:18;-5.50;99.90
7360;DHT22;3720;48.274;7.796;2022-12-18T02:16:58;-5.50;99.90
7360;DHT22;3720;48.274;7.796;2022-12-18T02:19:42;-5.50;99.90
7360;DHT22;3720;48.274;7.796;2022-12-18T02:22:25;-5.40;99.90
7360;DHT22;3720;48.274;7.796;2022-12-18T02:25:05;-5.50;99.90
7360;DHT22;3720;48.274;7.796;2022-12-18T02:27:46;-5.60;99.90
7360;DHT22;3720;48.274;7.796;2022-12-18T02:30:20;-5.60;99.90
7360;DHT22;3720;48.274;7.796;2022-12-18T02:32:54;-5.50;99.90
7360;DHT22;3720;48.274;7.796;2022-12-18T02:35:29;-5.50;99.90
7360;DHT22;3720;48.274;7.796;2022-12-18T02:38:03;-5.60;99.90
7360;DHT22;3720;48.274;7.796;2022-12-18T02:40:36;-5.60;99.90
7360;DHT22;3720;48.274;7.796;2022-12-18T02:43:13;-5.50;99.90
7360;DHT22;3720;48.274;7.796;2022-12-18T02:45:47;-5.50;99.90
7360;DHT22;3720;48.274;7.796;2022-12-18T02:48:22;-5.60;99.90
7360;DHT22;3720;48.274;7.796;2022-12-18T02:51:00;-5.60;99.90
7360;DHT22;3720;48.274;7.796;2022-12-18T02:53:38;-5.60;99.90
7360;DHT22;3720;48.274;7.796;2022-12-18T02:56:18;-5.70;99.90
7360;DHT22;3720;48.274;7.796;2022-12-18T02:58:58;-5.70;99.90
7360;DHT22;3720;48.274;7.796;2022-12-18T03:01:35;-5.70;99.90
7360;DHT22;3720;48.274;7.796;2022-12-18T03:04:15;-5.70;99.90
7360;DHT22;3720;48.274;7.796;2022-12-18T03:06:50;-5.60;99.90
7360;DHT22;3720;48.274;7.796;2022-12-18T03:09:28;-5.70;99.90
7360;DHT22;3720;48.274;7.796;2022-12-18T03:12:05;-5.70;99.90
7360;DHT22;3720;48.274;7.796;2022-12-18T03:15:02;-5.70;99.90
7360;DHT22;3720;48.274;7.796;2022-12-18T03:17:37;-5.70;99.90
7360;DHT22;3720;48.274;7.796;2022-12-18T03:20:14;-5.70;99.90
7360;DHT22;3720;48.274;7.796;2022-12-18T03:22:52;-5.60;99.90
7360;DHT22;3720;48.274;7.796;2022-12-18T03:25:26;-5.60;99.90
7360;DHT22;3720;48.274;7.796;2022-12-18T03:28:00;-5.50;99.90
7360;DHT22;3720;48.274;7.796;2022-12-18T03:30:38;-5.60;99.90
7360;DHT22;3720;48.274;7.796;2022-12-18T03:33:15;-5.60;99.90
7360;DHT22;3720;48.274;7.796;2022-12-18T03:35:50;-5.60;99.90
7360;DHT22;3720;48.274;7.796;2022-12-18T03:38:22;-5.70;99.90
7360;DHT22;3720;48.274;7.796;2022-12-18T03:41:02;-5.60;99.90
7360;DHT22;3720;48.274;7.796;2022-12-18T03:43:44;-5.70;99.90
7360;DHT22;3720;48.274;7.796;2022-12-18T03:46:25;-5.60;99.90
7360;DHT22;3720;48.274;7.796;2022-12-18T03:49:02;-5.60;99.90
7360;DHT22;3720;48.274;7.796;2022-12-18T03:51:43;-5.60;99.90
7360;DHT22;3720;48.274;7.796;2022-12-18T03:54:17;-5.70;99.90
7360;DHT22;3720;48.274;7.796;2022-12-18T03:56:55;-5.70;99.90
7360;DHT22;3720;48.274;7.796;2022-12-18T03:59:29;-5.70;99.90
7360;DHT22;3720;48.274;7.796;2022-12-18T04:02:05;-5.60;99.90
7360;DHT22;3720;48.274;7.796;2022-12-18T04:04:39;-5.60;99.90
7360;DHT22;3720;48.274;7.796;2022-12-18T04:07:13;-5.60;99.90
7360;DHT22;3720;48.274;7.796;2022-12-18T04:09:47;-5.60;99.90
7360;DHT22;3720;48.274;7.796;2022-12-18T04:12:20;-5.60;99.90
7360;DHT22;3720;48.274;7.796;2022-12-18T04:14:52;-5.50;99.90
7360;DHT22;3720;48.274;7.796;2022-12-18T04:17:25;-5.40;99.90
7360;DHT22;3720;48.274;7.796;2022-12-18T04:19:57;-5.40;99.90
7360;DHT22;3720;48.274;7.796;2022-12-18T04:22:29;-5.40;99.90
7360;DHT22;3720;48.274;7.796;2022-12-18T04:25:01;-5.40;99.90
7360;DHT22;3720;48.274;7.796;2022-12-18T04:27:33;-5.40;99.90
7360;DHT22;3720;48.274;7.796;2022-12-18T04:30:06;-5.40;99.90
7360;DHT22;3720;48.274;7.796;2022-12-18T04:32:40;-5.40;99.90
7360;DHT22;3720;48.274;7.796;2022-12-18T04:35:12;-5.40;99.90
7360;DHT22;3720;48.274;7.796;2022-12-18T04:37:44;-5.50;99.90
7360;DHT22;3720;48.274;7.796;2022-12-18T04:40:16;-5.60;99.90
7360;DHT22;3720;48.274;7.796;2022-12-18T04:42:48;-5.50;99.90
7360;DHT22;3720;48.274;7.796;2022-12-18T04:45:20;-5.50;99.90
7360;DHT22;3720;48.274;7.796;2022-12-18T04:47:53;-5.50;99.90
7360;DHT22;3720;48.274;7.796;2022-12-18T04:50:25;-5.50;99.90
7360;DHT22;3720;48.274;7.796;2022-12-18T04:52:57;-5.50;99.90
7360;DHT22;3720;48.274;7.796;2022-12-18T04:55:29;-5.40;99.90
7360;DHT22;3720;48.274;7.796;2022-12-18T04:58:01;-5.50;99.90
7360;DHT22;3720;48.274;7.796;2022-12-18T05:00:33;-5.50;99.90
7360;DHT22;3720;48.274;7.796;2022-12-18T05:03:06;-5.60;99.90
7360;DHT22;3720;48.274;7.796;2022-12-18T05:05:38;-5.70;99.90
7360;DHT22;3720;48.274;7.796;2022-12-18T05:08:10;-5.80;99.90
7360;DHT22;3720;48.274;7.796;2022-12-18T05:10:42;-5.80;99.90
7360;DHT22;3720;48.274;7.796;2022-12-18T05:13:14;-5.80;99.90
7360;DHT22;3720;48.274;7.796;2022-12-18T05:15:51;-5.80;99.90
7360;DHT22;3720;48.274;7.796;2022-12-18T05:18:24;-5.80;99.90
7360;DHT22;3720;48.274;7.796;2022-12-18T05:20:56;-5.80;99.90
7360;DHT22;3720;48.274;7.796;2022-12-18T05:23:29;-5.80;99.90
7360;DHT22;3720;48.274;7.796;2022-12-18T05:26:04;-5.80;99.90
7360;DHT22;3720;48.274;7.796;2022-12-18T05:28:36;-5.90;99.90
7360;DHT22;3720;48.274;7.796;2022-12-18T05:31:08;-5.90;99.90
7360;DHT22;3720;48.274;7.796;2022-12-18T05:33:41;-5.90;99.90
7360;DHT22;3720;48.274;7.796;2022-12-18T05:36:14;-5.90;99.90
7360;DHT22;3720;48.274;7.796;2022-12-18T05:38:46;-5.80;99.90
7360;DHT22;3720;48.274;7.796;2022-12-18T05:41:17;-5.90;99.90
7360;DHT22;3720;48.274;7.796;2022-12-18T05:43:49;-5.80;99.90
7360;DHT22;3720;48.274;7.796;2022-12-18T05:46:21;-5.80;99.90
7360;DHT22;3720;48.274;7.796;2022-12-18T05:48:54;-5.80;99.90
7360;DHT22;3720;48.274;7.796;2022-12-18T05:51:26;-5.80;99.90
7360;DHT22;3720;48.274;7.796;2022-12-18T05:53:58;-5.80;99.90
7360;DHT22;3720;48.274;7.796;2022-12-18T05:56:30;-5.80;99.90
7360;DHT22;3720;48.274;7.796;2022-12-18T05:59:02;-5.80;99.90
7360;DHT22;3720;48.274;7.796;2022-12-18T06:01:34;-5.70;99.90
7360;DHT22;3720;48.274;7.796;2022-12-18T06:04:07;-5.80;99.90
7360;DHT22;3720;48.274;7.796;2022-12-18T06:06:39;-5.80;99.90
7360;DHT22;3720;48.274;7.796;2022-12-18T06:09:11;-5.70;99.90
7360;DHT22;3720;48.274;7.796;2022-12-18T06:11:43;-5.70;99.90
7360;DHT22;3720;48.274;7.796;2022-12-18T06:14:15;-5.80;99.90
7360;DHT22;3720;48.274;7.796;2022-12-18T06:16:47;-5.70;99.90
7360;DHT22;3720;48.274;7.796;2022-12-18T06:19:23;-5.70;99.90
7360;DHT22;3720;48.274;7.796;2022-12-18T06:21:55;-5.70;99.90
7360;DHT22;3720;48.274;7.796;2022-12-18T06:24:29;-5.70;99.90
7360;DHT22;3720;48.274;7.796;2022-12-18T06:27:01;-5.70;99.90
7360;DHT22;3720;48.274;7.796;2022-12-18T06:29:33;-5.70;99.90
7360;DHT22;3720;48.274;7.796;2022-12-18T06:32:05;-5.70;99.90
7360;DHT22;3720;48.274;7.796;2022-12-18T06:34:38;-5.80;99.90
7360;DHT22;3720;48.274;7.796;2022-12-18T06:37:10;-5.80;99.90
7360;DHT22;3720;48.274;7.796;2022-12-18T06:39:42;-5.80;99.90
7360;DHT22;3720;48.274;7.796;2022-12-18T06:42:14;-5.80;99.90
7360;DHT22;3720;48.274;7.796;2022-12-18T06:44:46;-5.90;99.90
7360;DHT22;3720;48.274;7.796;2022-12-18T06:47:18;-5.80;99.90
7360;DHT22;3720;48.274;7.796;2022-12-18T06:49:51;-6.00;99.90
7360;DHT22;3720;48.274;7.796;2022-12-18T06:52:23;-5.90;99.90
7360;DHT22;3720;48.274;7.796;2022-12-18T06:54:55;-6.00;99.90
7360;DHT22;3720;48.274;7.796;2022-12-18T06:57:27;-6.00;99.90
7360;DHT22;3720;48.274;7.796;2022-12-18T06:59:59;-5.90;99.90
7360;DHT22;3720;48.274;7.796;2022-12-18T07:02:30;-5.80;99.90
7360;DHT22;3720;48.274;7.796;2022-12-18T07:05:06;-5.80;99.90
7360;DHT22;3720;48.274;7.796;2022-12-18T07:07:38;-5.70;99.90
7360;DHT22;3720;48.274;7.796;2022-12-18T07:10:10;-5.70;99.90
7360;DHT22;3720;48.274;7.796;2022-12-18T07:12:42;-5.80;99.90
7360;DHT22;3720;48.274;7.796;2022-12-18T07:15:14;-5.80;99.90
7360;DHT22;3720;48.274;7.796;2022-12-18T07:17:46;-5.90;99.90
7360;DHT22;3720;48.274;7.796;2022-12-18T07:20:19;-5.90;99.90
7360;DHT22;3720;48.274;7.796;2022-12-18T07:22:51;-6.00;99.90
7360;DHT22;3720;48.274;7.796;2022-12-18T07:25:23;-5.90;99.90
7360;DHT22;3720;48.274;7.796;2022-12-18T07:27:55;-5.90;99.90
7360;DHT22;3720;48.274;7.796;2022-12-18T07:30:27;-6.00;99.90
7360;DHT22;3720;48.274;7.796;2022-12-18T07:32:58;-6.00;99.90
7360;DHT22;3720;48.274;7.796;2022-12-18T07:35:32;-6.00;99.90
7360;DHT22;3720;48.274;7.796;2022-12-18T07:38:07;-6.00;99.90
7360;DHT22;3720;48.274;7.796;2022-12-18T07:40:39;-6.00;99.90
7360;DHT22;3720;48.274;7.796;2022-12-18T07:43:11;-5.90;99.90
7360;DHT22;3720;48.274;7.796;2022-12-18T07:45:43;-5.90;99.90
7360;DHT22;3720;48.274;7.796;2022-12-18T07:48:15;-5.90;99.90
7360;DHT22;3720;48.274;7.796;2022-12-18T07:50:48;-5.90;99.90
7360;DHT22;3720;48.274;7.796;2022-12-18T07:53:20;-6.00;99.90
7360;DHT22;3720;48.274;7.796;2022-12-18T07:55:55;-6.00;99.90
7360;DHT22;3720;48.274;7.796;2022-12-18T07:58:28;-6.10;99.90
7360;DHT22;3720;48.274;7.796;2022-12-18T08:01:04;-6.00;99.90
7360;DHT22;3720;48.274;7.796;2022-12-18T08:03:37;-6.00;99.90
7360;DHT22;3720;48.274;7.796;2022-12-18T08:06:11;-6.00;99.90
7360;DHT22;3720;48.274;7.796;2022-12-18T08:08:42;-6.00;99.90
7360;DHT22;3720;48.274;7.796;2022-12-18T08:11:14;-5.90;99.90
7360;DHT22;3720;48.274;7.796;2022-12-18T08:13:46;-6.10;99.90
7360;DHT22;3720;48.274;7.796;2022-12-18T08:16:19;-6.20;99.90
7360;DHT22;3720;48.274;7.796;2022-12-18T08:18:52;-6.20;99.90
7360;DHT22;3720;48.274;7.796;2022-12-18T08:21:27;-6.20;99.90
7360;DHT22;3720;48.274;7.796;2022-12-18T08:24:01;-6.20;99.90
7360;DHT22;3720;48.274;7.796;2022-12-18T08:26:33;-6.20;99.90
7360;DHT22;3720;48.274;7.796;2022-12-18T08:29:05;-6.20;99.90
7360;DHT22;3720;48.274;7.796;2022-12-18T08:31:37;-6.30;99.90
7360;DHT22;3720;48.274;7.796;2022-12-18T08:34:09;-6.30;99.90
7360;DHT22;3720;48.274;7.796;2022-12-18T08:36:42;-6.30;99.90
7360;DHT22;3720;48.274;7.796;2022-12-18T08:39:14;-6.30;99.90
7360;DHT22;3720;48.274;7.796;2022-12-18T08:41:46;-6.30;99.90
7360;DHT22;3720;48.274;7.796;2022-12-18T08:44:38;-6.30;99.90
7360;DHT22;3720;48.274;7.796;2022-12-18T08:47:08;-6.30;99.90
7360;DHT22;3720;48.274;7.796;2022-12-18T08:49:40;-6.30;99.90
7360;DHT22;3720;48.274;7.796;2022-12-18T08:52:14;-6.30;99.90
7360;DHT22;3720;48.274;7.796;2022-12-18T08:54:45;-6.20;99.90
7360;DHT22;3720;48.274;7.796;2022-12-18T08:57:17;-6.20;99.90
7360;DHT22;3720;48.274;7.796;2022-12-18T08:59:49;-6.10;99.90
7360;DHT22;3720;48.274;7.796;2022-12-18T09:02:21;-6.00;99.90
7360;DHT22;3720;48.274;7.796;2022-12-18T09:04:53;-5.90;99.90
7360;DHT22;3720;48.274;7.796;2022-12-18T09:07:26;-5.80;99.90
7360;DHT22;3720;48.274;7.796;2022-12-18T09:09:58;-5.80;99.90
7360;DHT22;3720;48.274;7.796;2022-12-18T09:12:30;-5.60;99.90
7360;DHT22;3720;48.274;7.796;2022-12-18T09:15:03;-5.70;99.90
7360;DHT22;3720;48.274;7.796;2022-12-18T09:17:35;-5.60;99.90
7360;DHT22;3720;48.274;7.796;2022-12-18T09:20:08;-5.60;99.90
7360;DHT22;3720;48.274;7.796;2022-12-18T09:22:41;-5.70;99.90
7360;DHT22;3720;48.274;7.796;2022-12-18T09:25:13;-5.60;99.90
7360;DHT22;3720;48.274;7.796;2022-12-18T09:27:47;-5.70;99.90
7360;DHT22;3720;48.274;7.796;2022-12-18T09:30:18;-5.60;99.90
7360;DHT22;3720;48.274;7.796;2022-12-18T09:32:51;-5.60;99.90
7360;DHT22;3720;48.274;7.796;2022-12-18T09:35:26;-5.50;99.90
7360;DHT22;3720;48.274;7.796;2022-12-18T09:37:59;-5.50;99.90
7360;DHT22;3720;48.274;7.796;2022-12-18T09:40:35;-5.50;99.90
7360;DHT22;3720;48.274;7.796;2022-12-18T09:43:13;-5.40;99.90
7360;DHT22;3720;48.274;7.796;2022-12-18T09:45:51;-5.40;99.90
7360;DHT22;3720;48.274;7.796;2022-12-18T09:48:27;-5.30;99.90
7360;DHT22;3720;48.274;7.796;2022-12-18T09:51:05;-5.20;99.90
7360;DHT22;3720;48.274;7.796;2022-12-18T09:53:47;-5.10;99.90
7360;DHT22;3720;48.274;7.796;2022-12-18T09:56:22;-4.90;99.90
7360;DHT22;3720;48.274;7.796;2022-12-18T09:58:59;-4.80;99.90
7360;DHT22;3720;48.274;7.796;2022-12-18T10:01:32;-4.80;99.90
7360;DHT22;3720;48.274;7.796;2022-12-18T10:04:08;-4.70;99.90
7360;DHT22;3720;48.274;7.796;2022-12-18T10:06:48;-4.70;99.90
7360;DHT22;3720;48.274;7.796;2022-12-18T10:09:28;-4.70;99.90
7360;DHT22;3720;48.274;7.796;2022-12-18T10:12:08;-4.60;99.90
7360;DHT22;3720;48.274;7.796;2022-12-18T10:14:49;-4.50;99.90
7360;DHT22;3720;48.274;7.796;2022-12-18T10:17:33;-4.50;99.90
7360;DHT22;3720;48.274;7.796;2022-12-18T10:20:13;-4.50;99.90
7360;DHT22;3720;48.274;7.796;2022-12-18T10:22:55;-4.40;99.90
7360;DHT22;3720;48.274;7.796;2022-12-18T10:25:34;-4.40;99.90
7360;DHT22;3720;48.274;7.796;2022-12-18T10:28:13;-4.30;99.90
7360;DHT22;3720;48.274;7.796;2022-12-18T10:30:45;-4.20;99.90
7360;DHT22;3720;48.274;7.796;2022-12-18T10:33:19;-4.10;99.90
7360;DHT22;3720;48.274;7.796;2022-12-18T10:35:52;-3.90;99.90
7360;DHT22;3720;48.274;7.796;2022-12-18T10:38:26;-3.70;99.90
7360;DHT22;3720;48.274;7.796;2022-12-18T10:41:02;-3.60;99.90
7360;DHT22;3720;48.274;7.796;2022-12-18T10:43:36;-3.50;99.90
7360;DHT22;3720;48.274;7.796;2022-12-18T10:46:14;-3.40;99.90
7360;DHT22;3720;48.274;7.796;2022-12-18T10:48:53;-3.40;99.90
7360;DHT22;3720;48.274;7.796;2022-12-18T10:51:26;-3.40;99.90
7360;DHT22;3720;48.274;7.796;2022-12-18T10:54:01;-3.30;99.90
7360;DHT22;3720;48.274;7.796;2022-12-18T10:56:36;-3.30;99.90
7360;DHT22;3720;48.274;7.796;2022-12-18T10:59:10;-3.20;99.90
7360;DHT22;3720;48.274;7.796;2022-12-18T11:01:50;-3.10;99.90
7360;DHT22;3720;48.274;7.796;2022-12-18T11:04:24;-3.10;99.90
7360;DHT22;3720;48.274;7.796;2022-12-18T11:06:58;-2.90;99.90
7360;DHT22;3720;48.274;7.796;2022-12-18T11:09:32;-2.90;99.90
7360;DHT22;3720;48.274;7.796;2022-12-18T11:12:19;-2.80;99.90
7360;DHT22;3720;48.274;7.796;2022-12-18T11:14:53;-2.70;99.90
7360;DHT22;3720;48.274;7.796;2022-12-18T11:17:30;-2.70;99.90
7360;DHT22;3720;48.274;7.796;2022-12-18T11:20:05;-2.80;99.90
7360;DHT22;3720;48.274;7.796;2022-12-18T11:22:39;-2.80;99.90
7360;DHT22;3720;48.274;7.796;2022-12-18T11:25:18;-2.80;99.90
7360;DHT22;3720;48.274;7.796;2022-12-18T11:27:54;-2.90;99.90
7360;DHT22;3720;48.274;7.796;2022-12-18T11:30:29;-2.90;99.90
7360;DHT22;3720;48.274;7.796;2022-12-18T11:33:04;-2.80;99.90
7360;DHT22;3720;48.274;7.796;2022-12-18T11:35:43;-2.80;99.90
7360;DHT22;3720;48.274;7.796;2022-12-18T11:38:20;-2.70;99.90
7360;DHT22;3720;48.274;7.796;2022-12-18T11:40:58;-2.80;99.90
7360;DHT22;3720;48.274;7.796;2022-12-18T11:43:38;-2.80;99.90
7360;DHT22;3720;48.274;7.796;2022-12-18T11:46:13;-2.80;99.90
7360;DHT22;3720;48.274;7.796;2022-12-18T11:48:50;-2.80;99.90
7360;DHT22;3720;48.274;7.796;2022-12-18T11:51:28;-2.80;99.90
7360;DHT22;3720;48.274;7.796;2022-12-18T11:54:10;-2.80;99.90
7360;DHT22;3720;48.274;7.796;2022-12-18T11:56:47;-2.70;99.90
7360;DHT22;3720;48.274;7.796;2022-12-18T11:59:29;-2.80;99.90
7360;DHT22;3720;48.274;7.796;2022-12-18T12:02:17;-2.80;99.90
7360;DHT22;3720;48.274;7.796;2022-12-18T12:05:10;-2.80;99.90
7360;DHT22;3720;48.274;7.796;2022-12-18T12:07:53;-2.70;99.90
7360;DHT22;3720;48.274;7.796;2022-12-18T12:10:37;-2.60;99.90
7360;DHT22;3720;48.274;7.796;2022-12-18T12:13:21;-2.40;99.90
7360;DHT22;3720;48.274;7.796;2022-12-18T12:16:05;-2.30;99.90
7360;DHT22;3720;48.274;7.796;2022-12-18T12:18:53;-2.20;99.90
7360;DHT22;3720;48.274;7.796;2022-12-18T12:21:35;-2.00;99.90
7360;DHT22;3720;48.274;7.796;2022-12-18T12:24:19;-1.80;99.90
7360;DHT22;3720;48.274;7.796;2022-12-18T12:27:03;-1.50;99.90
7360;DHT22;3720;48.274;7.796;2022-12-18T12:29:49;-1.20;99.90
7360;DHT22;3720;48.274;7.796;2022-12-18T12:32:40;-1.00;99.90
7360;DHT22;3720;48.274;7.796;2022-12-18T12:35:24;-0.90;99.90
7360;DHT22;3720;48.274;7.796;2022-12-18T12:38:06;-0.70;99.90
7360;DHT22;3720;48.274;7.796;2022-12-18T12:40:43;-0.70;99.90
7360;DHT22;3720;48.274;7.796;2022-12-18T12:43:25;-0.70;99.90
7360;DHT22;3720;48.274;7.796;2022-12-18T12:45:59;-0.70;99.90
7360;DHT22;3720;48.274;7.796;2022-12-18T12:48:41;-0.70;99.90
7360;DHT22;3720;48.274;7.796;2022-12-18T12:51:18;-0.70;99.90
7360;DHT22;3720;48.274;7.796;2022-12-18T12:53:52;-0.60;99.90
7360;DHT22;3720;48.274;7.796;2022-12-18T12:56:27;-0.50;99.90
7360;DHT22;3720;48.274;7.796;2022-12-18T12:59:11;-0.40;99.90
7360;DHT22;3720;48.274;7.796;2022-12-18T13:01:52;-0.30;99.90
7360;DHT22;3720;48.274;7.796;2022-12-18T13:04:33;-0.30;99.90
7360;DHT22;3720;48.274;7.796;2022-12-18T13:07:14;-0.40;99.90
7360;DHT22;3720;48.274;7.796;2022-12-18T13:10:13;-0.50;99.90
7360;DHT22;3720;48.274;7.796;2022-12-18T13:12:53;-0.70;99.90
7360;DHT22;3720;48.274;7.796;2022-12-18T13:15:36;-0.70;99.90
7360;DHT22;3720;48.274;7.796;2022-12-18T13:18:15;-0.70;99.90
7360;DHT22;3720;48.274;7.796;2022-12-18T13:20:50;-0.80;99.90
7360;DHT22;3720;48.274;7.796;2022-12-18T13:23:34;-0.80;99.90
7360;DHT22;3720;48.274;7.796;2022-12-18T13:26:32;-0.80;99.90
7360;DHT22;3720;48.274;7.796;2022-12-18T13:29:04;-0.70;99.90
7360;DHT22;3720;48.274;7.796;2022-12-18T13:31:57;-0.60;99.90
7360;DHT22;3720;48.274;7.796;2022-12-18T13:34:30;-0.60;99.90
7360;DHT22;3720;48.274;7.796;2022-12-18T13:43:49;-0.80;99.90
7360;DHT22;3720;48.274;7.796;2022-12-18T13:46:27;-0.80;99.90
7360;DHT22;3720;48.274;7.796;2022-12-18T13:49:02;-0.90;99.90
7360;DHT22;3720;48.274;7.796;2022-12-18T13:51:35;-0.90;99.90
7360;DHT22;3720;48.274;7.796;2022-12-18T13:54:18;-1.00;99.90
7360;DHT22;3720;48.274;7.796;2022-12-18T13:56:51;-1.10;99.90
7360;DHT22;3720;48.274;7.796;2022-12-18T13:59:25;-1.10;99.90
7360;DHT22;3720;48.274;7.796;2022-12-18T14:01:59;-1.20;99.90
7360;DHT22;3720;48.274;7.796;2022-12-18T14:04:33;-1.30;99.90
7360;DHT22;3720;48.274;7.796;2022-12-18T14:07:07;-1.30;99.90
7360;DHT22;3720;48.274;7.796;2022-12-18T14:09:44;-1.40;99.90
7360;DHT22;3720;48.274;7.796;2022-12-18T14:12:18;-1.50;99.90
7360;DHT22;3720;48.274;7.796;2022-12-18T14:15:15;-1.60;99.90
7360;DHT22;3720;48.274;7.796;2022-12-18T14:17:52;-1.60;99.90
7360;DHT22;3720;48.274;7.796;2022-12-18T14:20:27;-1.60;99.90
7360;DHT22;3720;48.274;7.796;2022-12-18T14:22:59;-1.70;99.90
7360;DHT22;3720;48.274;7.796;2022-12-18T14:25:31;-1.70;99.90
7360;DHT22;3720;48.274;7.796;2022-12-18T14:28:12;-1.80;99.90
7360;DHT22;3720;48.274;7.796;2022-12-18T14:30:46;-1.80;99.90
7360;DHT22;3720;48.274;7.796;2022-12-18T14:33:20;-1.80;99.90
7360;DHT22;3720;48.274;7.796;2022-12-18T14:35:55;-1.90;99.90
7360;DHT22;3720;48.274;7.796;2022-12-18T14:38:29;-1.90;99.90
7360;DHT22;3720;48.274;7.796;2022-12-18T14:41:04;-2.00;99.90
7360;DHT22;3720;48.274;7.796;2022-12-18T14:43:38;-2.10;99.90
7360;DHT22;3720;48.274;7.796;2022-12-18T14:49:19;-2.20;99.90
7360;DHT22;3720;48.274;7.796;2022-12-18T14:51:54;-2.30;99.90
7360;DHT22;3720;48.274;7.796;2022-12-18T14:54:28;-2.40;99.90
7360;DHT22;3720;48.274;7.796;2022-12-18T14:57:04;-2.50;99.90
7360;DHT22;3720;48.274;7.796;2022-12-18T14:59:36;-2.60;99.90
7360;DHT22;3720;48.274;7.796;2022-12-18T15:02:15;-2.70;99.90
7360;DHT22;3720;48.274;7.796;2022-12-18T15:05:01;-2.80;99.90
7360;DHT22;3720;48.274;7.796;2022-12-18T15:07:41;-2.80;99.90
7360;DHT22;3720;48.274;7.796;2022-12-18T15:10:16;-2.90;99.90
7360;DHT22;3720;48.274;7.796;2022-12-18T15:12:49;-3.00;99.90
7360;DHT22;3720;48.274;7.796;2022-12-18T15:15:47;-3.00;99.90
7360;DHT22;3720;48.274;7.796;2022-12-18T15:18:23;-3.10;99.90
7360;DHT22;3720;48.274;7.796;2022-12-18T15:21:00;-3.20;99.90
7360;DHT22;3720;48.274;7.796;2022-12-18T15:23:46;-3.20;99.90
7360;DHT22;3720;48.274;7.796;2022-12-18T15:26:20;-3.20;99.90
7360;DHT22;3720;48.274;7.796;2022-12-18T15:28:54;-3.20;99.90
7360;DHT22;3720;48.274;7.796;2022-12-18T15:31:30;-3.30;99.90
7360;DHT22;3720;48.274;7.796;2022-12-18T15:34:13;-3.30;99.90
7360;DHT22;3720;48.274;7.796;2022-12-18T15:36:47;-3.30;99.90
7360;DHT22;3720;48.274;7.796;2022-12-18T15:39:19;-3.30;99.90
7360;DHT22;3720;48.274;7.796;2022-12-18T15:41:51;-3.30;99.90
7360;DHT22;3720;48.274;7.796;2022-12-18T15:44:40;-3.40;99.90
7360;DHT22;3720;48.274;7.796;2022-12-18T15:47:13;-3.50;99.90
7360;DHT22;3720;48.274;7.796;2022-12-18T15:49:44;-3.50;99.90
7360;DHT22;3720;48.274;7.796;2022-12-18T15:52:18;-3.50;99.90
7360;DHT22;3720;48.274;7.796;2022-12-18T15:54:56;-3.50;99.90
7360;DHT22;3720;48.274;7.796;2022-12-18T15:58:00;-3.50;99.90
7360;DHT22;3720;48.274;7.796;2022-12-18T16:00:33;-3.60;99.90
7360;DHT22;3720;48.274;7.796;2022-12-18T16:03:06;-3.50;99.90
7360;DHT22;3720;48.274;7.796;2022-12-18T16:05:38;-3.50;99.90
7360;DHT22;3720;48.274;7.796;2022-12-18T16:08:11;-3.60;99.90
7360;DHT22;3720;48.274;7.796;2022-12-18T16:10:43;-3.60;99.90
7360;DHT22;3720;48.274;7.796;2022-12-18T16:13:16;-3.60;99.90
7360;DHT22;3720;48.274;7.796;2022-12-18T16:15:50;-3.60;99.90
7360;DHT22;3720;48.274;7.796;2022-12-18T16:18:23;-3.60;99.90
7360;DHT22;3720;48.274;7.796;2022-12-18T16:20:55;-3.50;99.90
7360;DHT22;3720;48.274;7.796;2022-12-18T16:23:28;-3.50;99.90
7360;DHT22;3720;48.274;7.796;2022-12-18T16:26:00;-3.50;99.90
7360;DHT22;3720;48.274;7.796;2022-12-18T16:28:33;-3.50;99.90
7360;DHT22;3720;48.274;7.796;2022-12-18T16:31:05;-3.50;99.90
7360;DHT22;3720;48.274;7.796;2022-12-18T16:33:36;-3.60;99.90
7360;DHT22;3720;48.274;7.796;2022-12-18T16:36:08;-3.60;99.90
7360;DHT22;3720;48.274;7.796;2022-12-18T16:38:42;-3.60;99.90
7360;DHT22;3720;48.274;7.796;2022-12-18T16:41:18;-3.60;99.90
7360;DHT22;3720;48.274;7.796;2022-12-18T16:44:03;-3.60;99.90
7360;DHT22;3720;48.274;7.796;2022-12-18T16:46:35;-3.60;99.90
7360;DHT22;3720;48.274;7.796;2022-12-18T16:49:08;-3.60;99.90
7360;DHT22;3720;48.274;7.796;2022-12-18T16:51:40;-3.60;99.90
7360;DHT22;3720;48.274;7.796;2022-12-18T16:54:14;-3.60;99.90
7360;DHT22;3720;48.274;7.796;2022-12-18T16:56:46;-3.60;99.90
7360;DHT22;3720;48.274;7.796;2022-12-18T16:59:19;-3.60;99.90
7360;DHT22;3720;48.274;7.796;2022-12-18T17:01:51;-3.50;99.90
7360;DHT22;3720;48.274;7.796;2022-12-18T17:04:23;-3.60;99.90